| Date | Time | Temp. (oF) | Dew Point (oF) | Rel. Hum. (%) | Press. (in.) | Wind Dir. | Wind Speed (mph) | Hourly Rainfall (in.) |
|
|---|---|---|---|---|---|---|---|---|---|
| 1 | 05/02 | 00:00 | 67 | 62 | 86 | 29.91 | SSE | 4 | 0.00 |
| 2 | 05/01 | 23:00 | 68 | 62 | 84 | 29.91 | SSW | 10 | 0.00 |
| 3 | 05/01 | 22:00 | 71 | 60 | 69 | 29.92 | SSW | 4 | 0.00 |
| 4 | 05/01 | 21:00 | 72 | 64 | 77 | 29.92 | S | 5 | 0.00 |
| 5 | 05/01 | 20:00 | 73 | 64 | 76 | 29.90 | SSW | 7 | 0.00 |
| 6 | 05/01 | 19:00 | 74 | 65 | 76 | 29.90 | S | 7 | 0.00 |
| 7 | 05/01 | 18:00 | 76 | 66 | 73 | 29.89 | SSE | 7 | 0.00 |
| 8 | 05/01 | 17:00 | 77 | 65 | 69 | 29.89 | SSE | 15 | 0.00 |
| 9 | 05/01 | 16:00 | 78 | 66 | 68 | 29.90 | ESE | 10 | 0.00 |
| 10 | 05/01 | 15:00 | 78 | 66 | 68 | 29.94 | S | 10 | 0.00 |
| 11 | 05/01 | 14:00 | 78 | 65 | 66 | 29.95 | SSW | 9 | 0.00 |
| 12 | 05/01 | 13:00 | 74 | 64 | 73 | 29.97 | SE | 9 | 0.00 |
| 13 | 05/01 | 12:00 | 67 | 61 | 84 | 30.01 | SSW | 6 | 0.00 |
| 14 | 05/01 | 11:00 | 63 | 59 | 88 | 30.05 | S | 4 | 0.00 |
| 15 | 05/01 | 10:00 | 60 | 57 | 90 | 30.05 | SSW | 5 | 0.00 |
| 16 | 05/01 | 09:00 | 58 | 55 | 91 | 30.07 | SE | 7 | 0.00 |
| 17 | 05/01 | 08:00 | 56 | 54 | 93 | 30.07 | SSE | 2 | 0.00 |
| 18 | 05/01 | 07:00 | 54 | 52 | 93 | 30.06 | SE | 4 | 0.00 |
| 19 | 05/01 | 06:00 | 53 | 50 | 91 | 30.05 | NE | 1 | 0.00 |
| 20 | 05/01 | 05:00 | 53 | 50 | 90 | 30.05 | NE | 3 | 0.00 |
| 21 | 05/01 | 04:00 | 54 | 50 | 87 | 30.05 | NW | 2 | 0.00 |
| 22 | 05/01 | 03:00 | 55 | 48 | 78 | 30.05 | NE | 3 | 0.00 |
| 23 | 05/01 | 02:00 | 57 | 44 | 62 | 30.04 | ESE | 3 | 0.00 |
| 24 | 05/01 | 01:00 | 59 | 42 | 55 | 30.10 | SSE | 4 | 0.00 |